Mark E Flynn — WDE5397 — position and weather

sailwx.info

Track history (hours):
 
Tides and Currents Weather Stations Pressure Air Temp Water Temp Dewpoint Dewpoint Depression Visibility Wind Speed Wind Dir Waves Ship Positions

Mark E Flynn

Owner: Maryland Marine, Inc., Orange, TX. More information available from US FCC via Universal Licensing System and Coast Guard Vessel Documentation Center.

Last reported at 2017-Oct-06 23:38 UTC. Time now 2017-Oct-19 16:29 UTC.
Position N 29°30' W 094°53'.
Warning: this ship's position is 12 days out of date.

Length 24 m; draft 2.7 m.

Type: Towing. MMSI: 367366130.

Date/timePositionNaut miles runAvg speedWind from/ knotsBaromVisibWave heightAir tempDewpointWater temp
2017-Oct-06 23:38N 29°30' W 094°53'1 7.7
2017-Oct-06 23:27N 29°32' W 094°53'3 7.8
2017-Oct-06 23:00N 29°34' W 094°56'5 8.3
2017-Oct-06 22:27N 29°39' W 094°58'10 1.1
2017-Oct-06 13:56N 29°45' W 095°07'2 4.3
2017-Oct-06 13:30N 29°46' W 095°05'2 4.9
2017-Oct-06 13:00N 29°44' W 095°03'2 4.7
2017-Oct-06 12:30N 29°42' W 095°01'3 5.3
2017-Oct-06 12:00N 29°41' W 094°59'3 5.6
2017-Oct-06 11:30N 29°38' W 094°58'3 5.7
2017-Oct-06 11:00N 29°36' W 094°57'3 5.7
2017-Oct-06 10:30N 29°33' W 094°55'69 2.3
2017-Oct-05 04:56N 30°03' W 093°43'3 4.8
2017-Oct-05 04:18N 30°04' W 093°39'2 5.8
2017-Oct-05 04:00N 30°04' W 093°37'3 5.8
2017-Oct-05 03:30N 30°04' W 093°34'3 6.1
2017-Oct-05 03:00N 30°04' W 093°30'3 6.0
2017-Oct-05 02:30N 30°04' W 093°27'3 6.0
2017-Oct-05 02:00N 30°04' W 093°23'3 5.1
2017-Oct-05 01:30N 30°04' W 093°21'0 0.1
2017-Oct-05 01:00N 30°04' W 093°21'0 0.3
2017-Oct-05 00:30N 30°04' W 093°21'0 0.1
2017-Oct-05 00:00N 30°04' W 093°21'0 0.0
2017-Oct-04 23:30N 30°04' W 093°21'0 0.0
2017-Oct-04 23:00N 30°04' W 093°21'0 0.0
2017-Oct-04 22:30N 30°04' W 093°21'0 0.0
2017-Oct-04 22:00N 30°04' W 093°21'0 0.0
2017-Oct-04 21:30N 30°04' W 093°21'0 0.0
2017-Oct-04 21:00N 30°04' W 093°21'0 0.0
2017-Oct-04 20:30N 30°04' W 093°21'0 0.0
2017-Oct-04 20:00N 30°04' W 093°21'0 0.0
2017-Oct-04 19:30N 30°04' W 093°21'0 0.0
2017-Oct-04 19:00N 30°04' W 093°21'0 0.1
2017-Oct-04 18:30N 30°04' W 093°21'0 0.0
2017-Oct-04 18:00N 30°04' W 093°21'0 0.0
2017-Oct-04 17:30N 30°04' W 093°21'0 0.0
2017-Oct-04 17:00N 30°04' W 093°21'0 0.0
2017-Oct-04 16:30N 30°04' W 093°21'0 0.0
2017-Oct-04 16:00N 30°04' W 093°21'0 0.0
2017-Oct-04 15:30N 30°04' W 093°21'0 0.0
2017-Oct-04 15:00N 30°04' W 093°21'0 0.0
2017-Oct-04 14:30N 30°04' W 093°21'0 0.0
2017-Oct-04 14:00N 30°04' W 093°21'0 0.0
2017-Oct-04 13:30N 30°04' W 093°21'0 0.0
2017-Oct-04 13:00N 30°04' W 093°21'0 0.0
2017-Oct-04 12:30N 30°04' W 093°21'0 0.0
2017-Oct-04 12:00N 30°04' W 093°21'0 0.0
2017-Oct-04 11:30N 30°04' W 093°21'0 0.0
2017-Oct-04 11:00N 30°04' W 093°21'0 0.0
2017-Oct-04 10:30N 30°04' W 093°21'0 0.0
2017-Oct-04 10:00N 30°04' W 093°21'0 0.0
2017-Oct-04 09:30N 30°04' W 093°21'0 0.0
2017-Oct-04 08:58N 30°04' W 093°21'0 0.0
2017-Oct-04 08:30N 30°04' W 093°21'0 0.0
2017-Oct-04 08:00N 30°04' W 093°21'0 0.0
2017-Oct-04 07:28N 30°04' W 093°21'0 0.0
2017-Oct-04 07:00N 30°04' W 093°21'0 0.0
2017-Oct-04 06:30N 30°04' W 093°21'0 0.0
2017-Oct-04 06:00N 30°04' W 093°21'0 0.0
2017-Oct-04 05:30N 30°04' W 093°21'0 0.0
2017-Oct-04 05:00N 30°04' W 093°21'0 0.0
2017-Oct-04 04:30N 30°04' W 093°21'0 0.0
2017-Oct-04 04:00N 30°04' W 093°21'0 0.0
2017-Oct-04 03:30N 30°04' W 093°21'0 0.0
2017-Oct-04 03:00N 30°04' W 093°21'0 0.0
2017-Oct-04 02:30N 30°04' W 093°21'0 0.0
2017-Oct-04 02:00N 30°04' W 093°21'0 0.0
2017-Oct-04 01:30N 30°04' W 093°21'1 2.4
2017-Oct-04 01:00N 30°04' W 093°22'1 1.6
2017-Oct-04 00:30N 30°04' W 093°23'1 1.3
2017-Oct-04 00:00N 30°04' W 093°24'3 6.3
2017-Oct-03 23:30N 30°04' W 093°27'81 3.4
2017-Oct-02 23:39N 29°30' W 094°52'2 8.0
2017-Oct-02 23:27N 29°31' W 094°53'3 7.8
2017-Oct-02 23:00N 29°34' W 094°55'5 7.4
2017-Oct-02 22:22N 29°38' W 094°58'3 7.7
2017-Oct-02 21:55N 29°41' W 094°59'7 0.9
2017-Oct-02 13:12N 29°46' W 095°06'0 0.0
2017-Oct-01 17:14N 29°46' W 095°05'1 0.0
2017-Sep-29 16:54N 29°45' W 095°06'1 0.3
2017-Sep-29 12:44N 29°45' W 095°07'0 0.0
2017-Sep-29 12:21N 29°45' W 095°07'0 0.0
2017-Sep-29 11:59N 29°45' W 095°07'0 0.0
2017-Sep-29 11:28N 29°45' W 095°07'0 0.0
2017-Sep-29 10:54N 29°45' W 095°07'0 0.0
2017-Sep-29 09:54N 29°45' W 095°07'0 0.0
2017-Sep-29 09:30N 29°45' W 095°07'0 0.0
2017-Sep-29 08:50N 29°45' W 095°07'0 0.0
2017-Sep-29 08:30N 29°45' W 095°07'0 0.0
2017-Sep-29 07:46N 29°45' W 095°07'0 0.0
2017-Sep-29 03:51N 29°45' W 095°07'0 0.0
2017-Sep-29 03:25N 29°45' W 095°07'0 0.0
2017-Sep-29 02:53N 29°45' W 095°07'0 0.0
2017-Sep-29 01:52N 29°45' W 095°07'0 0.0
2017-Sep-29 01:30N 29°45' W 095°07'0 0.0
2017-Sep-29 00:56N 29°45' W 095°07'2 0.0
2017-Sep-27 06:00N 29°47' W 095°06'1 0.4
2017-Sep-27 04:42N 29°47' W 095°06'0 0.3
2017-Sep-27 04:30N 29°47' W 095°06'1 1.1
2017-Sep-27 03:18N 29°46' W 095°05'6 2.2
2017-Sep-27 00:45N 29°45' W 095°11'2 6.6
2017-Sep-27 00:30N 29°44' W 095°09'  
Track history (hours):
 
Tides and Currents Weather Stations Pressure Air Temp Water Temp Dewpoint Dewpoint Depression Visibility Wind Speed Wind Dir Waves Ship Positions

Mark E Flynn

Owner: Maryland Marine, Inc., Orange, TX. More information available from US FCC via Universal Licensing System and Coast Guard Vessel Documentation Center.

Last reported at 2017-Oct-06 23:38 UTC. Time now 2017-Oct-19 16:29 UTC.
Position N 29°30' W 094°53'.
Warning: this ship's position is 12 days out of date.

Length 24 m; draft 2.7 m.

Type: Towing. MMSI: 367366130.

Date/timePositionNaut miles runAvg speedWind from/ knotsBaromVisibWave heightAir tempDewpointWater temp
2017-Oct-06 23:38N 29°30' W 094°53'1 7.7
2017-Oct-06 23:27N 29°32' W 094°53'3 7.8
2017-Oct-06 23:00N 29°34' W 094°56'5 8.3
2017-Oct-06 22:27N 29°39' W 094°58'10 1.1
2017-Oct-06 13:56N 29°45' W 095°07'2 4.3
2017-Oct-06 13:30N 29°46' W 095°05'2 4.9
2017-Oct-06 13:00N 29°44' W 095°03'2 4.7
2017-Oct-06 12:30N 29°42' W 095°01'3 5.3
2017-Oct-06 12:00N 29°41' W 094°59'3 5.6
2017-Oct-06 11:30N 29°38' W 094°58'3 5.7
2017-Oct-06 11:00N 29°36' W 094°57'3 5.7
2017-Oct-06 10:30N 29°33' W 094°55'69 2.3
2017-Oct-05 04:56N 30°03' W 093°43'3 4.8
2017-Oct-05 04:18N 30°04' W 093°39'2 5.8
2017-Oct-05 04:00N 30°04' W 093°37'3 5.8
2017-Oct-05 03:30N 30°04' W 093°34'3 6.1
2017-Oct-05 03:00N 30°04' W 093°30'3 6.0
2017-Oct-05 02:30N 30°04' W 093°27'3 6.0
2017-Oct-05 02:00N 30°04' W 093°23'3 5.1
2017-Oct-05 01:30N 30°04' W 093°21'0 0.1
2017-Oct-05 01:00N 30°04' W 093°21'0 0.3
2017-Oct-05 00:30N 30°04' W 093°21'0 0.1
2017-Oct-05 00:00N 30°04' W 093°21'0 0.0
2017-Oct-04 23:30N 30°04' W 093°21'0 0.0
2017-Oct-04 23:00N 30°04' W 093°21'0 0.0
2017-Oct-04 22:30N 30°04' W 093°21'0 0.0
2017-Oct-04 22:00N 30°04' W 093°21'0 0.0
2017-Oct-04 21:30N 30°04' W 093°21'0 0.0
2017-Oct-04 21:00N 30°04' W 093°21'0 0.0
2017-Oct-04 20:30N 30°04' W 093°21'0 0.0
2017-Oct-04 20:00N 30°04' W 093°21'0 0.0
2017-Oct-04 19:30N 30°04' W 093°21'0 0.0
2017-Oct-04 19:00N 30°04' W 093°21'0 0.1
2017-Oct-04 18:30N 30°04' W 093°21'0 0.0
2017-Oct-04 18:00N 30°04' W 093°21'0 0.0
2017-Oct-04 17:30N 30°04' W 093°21'0 0.0
2017-Oct-04 17:00N 30°04' W 093°21'0 0.0
2017-Oct-04 16:30N 30°04' W 093°21'0 0.0
2017-Oct-04 16:00N 30°04' W 093°21'0 0.0
2017-Oct-04 15:30N 30°04' W 093°21'0 0.0
2017-Oct-04 15:00N 30°04' W 093°21'0 0.0
2017-Oct-04 14:30N 30°04' W 093°21'0 0.0
2017-Oct-04 14:00N 30°04' W 093°21'0 0.0
2017-Oct-04 13:30N 30°04' W 093°21'0 0.0
2017-Oct-04 13:00N 30°04' W 093°21'0 0.0
2017-Oct-04 12:30N 30°04' W 093°21'0 0.0
2017-Oct-04 12:00N 30°04' W 093°21'0 0.0
2017-Oct-04 11:30N 30°04' W 093°21'0 0.0
2017-Oct-04 11:00N 30°04' W 093°21'0 0.0
2017-Oct-04 10:30N 30°04' W 093°21'0 0.0
2017-Oct-04 10:00N 30°04' W 093°21'0 0.0
2017-Oct-04 09:30N 30°04' W 093°21'0 0.0
2017-Oct-04 08:58N 30°04' W 093°21'0 0.0
2017-Oct-04 08:30N 30°04' W 093°21'0 0.0
2017-Oct-04 08:00N 30°04' W 093°21'0 0.0
2017-Oct-04 07:28N 30°04' W 093°21'0 0.0
2017-Oct-04 07:00N 30°04' W 093°21'0 0.0
2017-Oct-04 06:30N 30°04' W 093°21'0 0.0
2017-Oct-04 06:00N 30°04' W 093°21'0 0.0
2017-Oct-04 05:30N 30°04' W 093°21'0 0.0
2017-Oct-04 05:00N 30°04' W 093°21'0 0.0
2017-Oct-04 04:30N 30°04' W 093°21'0 0.0
2017-Oct-04 04:00N 30°04' W 093°21'0 0.0
2017-Oct-04 03:30N 30°04' W 093°21'0 0.0
2017-Oct-04 03:00N 30°04' W 093°21'0 0.0
2017-Oct-04 02:30N 30°04' W 093°21'0 0.0
2017-Oct-04 02:00N 30°04' W 093°21'0 0.0
2017-Oct-04 01:30N 30°04' W 093°21'1 2.4
2017-Oct-04 01:00N 30°04' W 093°22'1 1.6
2017-Oct-04 00:30N 30°04' W 093°23'1 1.3
2017-Oct-04 00:00N 30°04' W 093°24'3 6.3
2017-Oct-03 23:30N 30°04' W 093°27'81 3.4
2017-Oct-02 23:39N 29°30' W 094°52'2 8.0
2017-Oct-02 23:27N 29°31' W 094°53'3 7.8
2017-Oct-02 23:00N 29°34' W 094°55'5 7.4
2017-Oct-02 22:22N 29°38' W 094°58'3 7.7
2017-Oct-02 21:55N 29°41' W 094°59'7 0.9
2017-Oct-02 13:12N 29°46' W 095°06'0 0.0
2017-Oct-01 17:14N 29°46' W 095°05'1 0.0
2017-Sep-29 16:54N 29°45' W 095°06'1 0.3
2017-Sep-29 12:44N 29°45' W 095°07'0 0.0
2017-Sep-29 12:21N 29°45' W 095°07'0 0.0
2017-Sep-29 11:59N 29°45' W 095°07'0 0.0
2017-Sep-29 11:28N 29°45' W 095°07'0 0.0
2017-Sep-29 10:54N 29°45' W 095°07'0 0.0
2017-Sep-29 09:54N 29°45' W 095°07'0 0.0
2017-Sep-29 09:30N 29°45' W 095°07'0 0.0
2017-Sep-29 08:50N 29°45' W 095°07'0 0.0
2017-Sep-29 08:30N 29°45' W 095°07'0 0.0
2017-Sep-29 07:46N 29°45' W 095°07'0 0.0
2017-Sep-29 03:51N 29°45' W 095°07'0 0.0
2017-Sep-29 03:25N 29°45' W 095°07'0 0.0
2017-Sep-29 02:53N 29°45' W 095°07'0 0.0
2017-Sep-29 01:52N 29°45' W 095°07'0 0.0
2017-Sep-29 01:30N 29°45' W 095°07'0 0.0
2017-Sep-29 00:56N 29°45' W 095°07'2 0.0
2017-Sep-27 06:00N 29°47' W 095°06'1 0.4
2017-Sep-27 04:42N 29°47' W 095°06'0 0.3
2017-Sep-27 04:30N 29°47' W 095°06'1 1.1
2017-Sep-27 03:18N 29°46' W 095°05'6 2.2
2017-Sep-27 00:45N 29°45' W 095°11'2 6.6
2017-Sep-27 00:30N 29°44' W 095°09'  

Dump ship's entire track history